sensor_id;sensor_type;location;lat;lon;timestamp;P1;durP1;ratioP1;P2;durP2;ratioP2
31994;SDS011;51311;50.870;7.048;2022-07-22T00:01:59;1.50;;;0.70;;
31994;SDS011;51311;50.870;7.048;2022-07-22T00:05:59;0.80;;;0.40;;
31994;SDS011;51311;50.870;7.048;2022-07-22T00:09:59;0.70;;;0.40;;
31994;SDS011;51311;50.870;7.048;2022-07-22T00:13:59;0.60;;;0.40;;
31994;SDS011;51311;50.870;7.048;2022-07-22T00:17:59;0.80;;;0.40;;
31994;SDS011;51311;50.870;7.048;2022-07-22T00:22:00;1.20;;;0.50;;
31994;SDS011;51311;50.870;7.048;2022-07-22T00:26:00;0.40;;;0.40;;
31994;SDS011;51311;50.870;7.048;2022-07-22T00:30:00;0.90;;;0.40;;
31994;SDS011;51311;50.870;7.048;2022-07-22T00:34:00;0.90;;;0.40;;
31994;SDS011;51311;50.870;7.048;2022-07-22T00:38:00;0.90;;;0.50;;
31994;SDS011;51311;50.870;7.048;2022-07-22T00:42:00;0.60;;;0.40;;
31994;SDS011;51311;50.870;7.048;2022-07-22T00:46:01;0.60;;;0.40;;
31994;SDS011;51311;50.870;7.048;2022-07-22T00:50:01;2.00;;;0.70;;
31994;SDS011;51311;50.870;7.048;2022-07-22T00:54:01;1.10;;;0.50;;
31994;SDS011;51311;50.870;7.048;2022-07-22T00:58:02;0.60;;;0.40;;
31994;SDS011;51311;50.870;7.048;2022-07-22T01:02:01;0.50;;;0.30;;
31994;SDS011;51311;50.870;7.048;2022-07-22T01:06:02;1.70;;;0.40;;
31994;SDS011;51311;50.870;7.048;2022-07-22T01:10:02;1.30;;;0.50;;
31994;SDS011;51311;50.870;7.048;2022-07-22T01:14:02;0.90;;;0.40;;
31994;SDS011;51311;50.870;7.048;2022-07-22T01:18:02;1.60;;;0.50;;
31994;SDS011;51311;50.870;7.048;2022-07-22T01:22:03;0.60;;;0.40;;
31994;SDS011;51311;50.870;7.048;2022-07-22T01:26:03;0.40;;;0.30;;
31994;SDS011;51311;50.870;7.048;2022-07-22T01:30:04;0.50;;;0.30;;
31994;SDS011;51311;50.870;7.048;2022-07-22T01:34:03;1.50;;;0.50;;
31994;SDS011;51311;50.870;7.048;2022-07-22T01:38:03;0.60;;;0.40;;
31994;SDS011;51311;50.870;7.048;2022-07-22T01:42:03;0.40;;;0.30;;
31994;SDS011;51311;50.870;7.048;2022-07-22T01:46:03;0.50;;;0.30;;
31994;SDS011;51311;50.870;7.048;2022-07-22T01:50:04;0.80;;;0.50;;
31994;SDS011;51311;50.870;7.048;2022-07-22T01:54:03;0.60;;;0.40;;
31994;SDS011;51311;50.870;7.048;2022-07-22T01:58:04;0.50;;;0.20;;
31994;SDS011;51311;50.870;7.048;2022-07-22T02:02:04;0.90;;;0.40;;
31994;SDS011;51311;50.870;7.048;2022-07-22T02:06:04;0.50;;;0.30;;
31994;SDS011;51311;50.870;7.048;2022-07-22T02:10:05;0.70;;;0.50;;
31994;SDS011;51311;50.870;7.048;2022-07-22T02:14:04;0.60;;;0.40;;
31994;SDS011;51311;50.870;7.048;2022-07-22T02:18:12;0.50;;;0.20;;
31994;SDS011;51311;50.870;7.048;2022-07-22T02:22:05;0.50;;;0.30;;
31994;SDS011;51311;50.870;7.048;2022-07-22T02:26:05;0.60;;;0.50;;
31994;SDS011;51311;50.870;7.048;2022-07-22T02:30:05;0.50;;;0.30;;
31994;SDS011;51311;50.870;7.048;2022-07-22T02:34:05;0.40;;;0.30;;
31994;SDS011;51311;50.870;7.048;2022-07-22T02:38:05;0.90;;;0.50;;
31994;SDS011;51311;50.870;7.048;2022-07-22T02:42:05;0.60;;;0.40;;
31994;SDS011;51311;50.870;7.048;2022-07-22T02:46:06;0.40;;;0.30;;
31994;SDS011;51311;50.870;7.048;2022-07-22T02:50:06;0.40;;;0.30;;
31994;SDS011;51311;50.870;7.048;2022-07-22T02:54:06;0.70;;;0.40;;
31994;SDS011;51311;50.870;7.048;2022-07-22T02:58:07;0.60;;;0.30;;
31994;SDS011;51311;50.870;7.048;2022-07-22T03:02:06;0.70;;;0.40;;
31994;SDS011;51311;50.870;7.048;2022-07-22T03:06:07;0.30;;;0.20;;
31994;SDS011;51311;50.870;7.048;2022-07-22T03:10:07;0.50;;;0.30;;
31994;SDS011;51311;50.870;7.048;2022-07-22T03:14:07;0.80;;;0.40;;
31994;SDS011;51311;50.870;7.048;2022-07-22T03:18:07;0.70;;;0.40;;
31994;SDS011;51311;50.870;7.048;2022-07-22T03:22:07;0.90;;;0.50;;
31994;SDS011;51311;50.870;7.048;2022-07-22T03:26:07;1.00;;;0.50;;
31994;SDS011;51311;50.870;7.048;2022-07-22T03:30:08;0.30;;;0.30;;
31994;SDS011;51311;50.870;7.048;2022-07-22T03:34:08;0.50;;;0.30;;
31994;SDS011;51311;50.870;7.048;2022-07-22T03:38:08;0.50;;;0.40;;
31994;SDS011;51311;50.870;7.048;2022-07-22T03:42:08;1.20;;;0.40;;
31994;SDS011;51311;50.870;7.048;2022-07-22T03:46:08;0.60;;;0.40;;
31994;SDS011;51311;50.870;7.048;2022-07-22T03:50:08;0.60;;;0.30;;
31994;SDS011;51311;50.870;7.048;2022-07-22T03:54:09;0.70;;;0.40;;
31994;SDS011;51311;50.870;7.048;2022-07-22T03:58:09;0.50;;;0.30;;
31994;SDS011;51311;50.870;7.048;2022-07-22T04:02:09;0.70;;;0.40;;
31994;SDS011;51311;50.870;7.048;2022-07-22T04:06:09;0.60;;;0.40;;
31994;SDS011;51311;50.870;7.048;2022-07-22T04:10:09;0.70;;;0.30;;
31994;SDS011;51311;50.870;7.048;2022-07-22T04:14:09;0.70;;;0.30;;
31994;SDS011;51311;50.870;7.048;2022-07-22T04:18:09;0.90;;;0.40;;
31994;SDS011;51311;50.870;7.048;2022-07-22T04:22:10;0.50;;;0.30;;
31994;SDS011;51311;50.870;7.048;2022-07-22T04:26:10;0.80;;;0.40;;
31994;SDS011;51311;50.870;7.048;2022-07-22T04:30:10;1.00;;;0.40;;
31994;SDS011;51311;50.870;7.048;2022-07-22T04:34:10;0.60;;;0.40;;
31994;SDS011;51311;50.870;7.048;2022-07-22T04:38:10;0.80;;;0.40;;
31994;SDS011;51311;50.870;7.048;2022-07-22T04:42:10;0.70;;;0.40;;
31994;SDS011;51311;50.870;7.048;2022-07-22T04:46:11;1.00;;;0.40;;
31994;SDS011;51311;50.870;7.048;2022-07-22T04:50:11;1.00;;;0.50;;
31994;SDS011;51311;50.870;7.048;2022-07-22T04:54:11;7.30;;;1.20;;
31994;SDS011;51311;50.870;7.048;2022-07-22T04:58:11;8.80;;;1.50;;
31994;SDS011;51311;50.870;7.048;2022-07-22T05:02:11;3.80;;;1.00;;
31994;SDS011;51311;50.870;7.048;2022-07-22T05:06:12;3.80;;;1.20;;
31994;SDS011;51311;50.870;7.048;2022-07-22T05:10:12;3.80;;;1.40;;
31994;SDS011;51311;50.870;7.048;2022-07-22T05:14:12;2.60;;;1.20;;
31994;SDS011;51311;50.870;7.048;2022-07-22T05:18:12;2.50;;;1.10;;
31994;SDS011;51311;50.870;7.048;2022-07-22T05:22:12;2.10;;;1.20;;
31994;SDS011;51311;50.870;7.048;2022-07-22T05:26:12;2.30;;;1.10;;
31994;SDS011;51311;50.870;7.048;2022-07-22T05:30:12;3.90;;;1.70;;
31994;SDS011;51311;50.870;7.048;2022-07-22T05:34:13;2.30;;;1.00;;
31994;SDS011;51311;50.870;7.048;2022-07-22T05:38:13;2.40;;;1.10;;
31994;SDS011;51311;50.870;7.048;2022-07-22T05:42:13;3.70;;;1.30;;
31994;SDS011;51311;50.870;7.048;2022-07-22T05:46:13;2.40;;;1.20;;
31994;SDS011;51311;50.870;7.048;2022-07-22T05:50:13;6.00;;;1.60;;
31994;SDS011;51311;50.870;7.048;2022-07-22T05:54:13;4.10;;;1.50;;
31994;SDS011;51311;50.870;7.048;2022-07-22T05:58:13;3.10;;;1.60;;
31994;SDS011;51311;50.870;7.048;2022-07-22T06:02:14;2.80;;;1.20;;
31994;SDS011;51311;50.870;7.048;2022-07-22T06:06:14;4.40;;;1.80;;
31994;SDS011;51311;50.870;7.048;2022-07-22T06:10:14;7.80;;;1.70;;
31994;SDS011;51311;50.870;7.048;2022-07-22T06:18:14;5.70;;;1.50;;
31994;SDS011;51311;50.870;7.048;2022-07-22T06:22:14;2.70;;;1.50;;
31994;SDS011;51311;50.870;7.048;2022-07-22T06:26:15;3.40;;;1.80;;
31994;SDS011;51311;50.870;7.048;2022-07-22T06:30:15;5.40;;;1.90;;
31994;SDS011;51311;50.870;7.048;2022-07-22T06:34:15;5.10;;;1.80;;
31994;SDS011;51311;50.870;7.048;2022-07-22T06:38:15;4.40;;;1.70;;
31994;SDS011;51311;50.870;7.048;2022-07-22T06:42:15;3.80;;;1.80;;
31994;SDS011;51311;50.870;7.048;2022-07-22T06:46:15;4.80;;;1.80;;
31994;SDS011;51311;50.870;7.048;2022-07-22T06:50:15;4.60;;;2.30;;
31994;SDS011;51311;50.870;7.048;2022-07-22T06:54:16;4.30;;;2.30;;
31994;SDS011;51311;50.870;7.048;2022-07-22T06:58:16;6.30;;;2.50;;
31994;SDS011;51311;50.870;7.048;2022-07-22T07:02:16;5.80;;;2.20;;
31994;SDS011;51311;50.870;7.048;2022-07-22T07:06:16;4.20;;;2.30;;
31994;SDS011;51311;50.870;7.048;2022-07-22T07:10:17;5.60;;;2.70;;
31994;SDS011;51311;50.870;7.048;2022-07-22T07:14:17;4.70;;;2.50;;
31994;SDS011;51311;50.870;7.048;2022-07-22T07:18:17;5.30;;;2.60;;
31994;SDS011;51311;50.870;7.048;2022-07-22T07:22:17;7.80;;;2.60;;
31994;SDS011;51311;50.870;7.048;2022-07-22T07:26:17;5.20;;;2.70;;
31994;SDS011;51311;50.870;7.048;2022-07-22T07:30:18;8.80;;;2.80;;
31994;SDS011;51311;50.870;7.048;2022-07-22T07:34:18;11.90;;;3.10;;
31994;SDS011;51311;50.870;7.048;2022-07-22T07:38:18;5.40;;;2.70;;
31994;SDS011;51311;50.870;7.048;2022-07-22T07:42:18;6.40;;;2.60;;
31994;SDS011;51311;50.870;7.048;2022-07-22T07:46:18;8.60;;;2.80;;
31994;SDS011;51311;50.870;7.048;2022-07-22T07:50:19;7.40;;;3.00;;
31994;SDS011;51311;50.870;7.048;2022-07-22T07:54:19;6.20;;;3.70;;
31994;SDS011;51311;50.870;7.048;2022-07-22T07:58:19;5.60;;;3.10;;
31994;SDS011;51311;50.870;7.048;2022-07-22T08:02:19;5.60;;;3.40;;
31994;SDS011;51311;50.870;7.048;2022-07-22T08:06:19;5.70;;;3.00;;
31994;SDS011;51311;50.870;7.048;2022-07-22T08:10:20;5.80;;;3.00;;
31994;SDS011;51311;50.870;7.048;2022-07-22T08:14:20;5.00;;;2.70;;
31994;SDS011;51311;50.870;7.048;2022-07-22T08:18:20;10.00;;;3.50;;
31994;SDS011;51311;50.870;7.048;2022-07-22T08:22:20;6.00;;;3.00;;
31994;SDS011;51311;50.870;7.048;2022-07-22T08:26:21;10.00;;;3.20;;
31994;SDS011;51311;50.870;7.048;2022-07-22T08:30:21;7.30;;;3.60;;
31994;SDS011;51311;50.870;7.048;2022-07-22T08:34:21;7.30;;;3.80;;
31994;SDS011;51311;50.870;7.048;2022-07-22T08:38:21;5.60;;;3.10;;
31994;SDS011;51311;50.870;7.048;2022-07-22T08:42:22;7.60;;;3.10;;
31994;SDS011;51311;50.870;7.048;2022-07-22T08:46:22;5.90;;;2.80;;
31994;SDS011;51311;50.870;7.048;2022-07-22T08:50:22;5.50;;;3.20;;
31994;SDS011;51311;50.870;7.048;2022-07-22T08:54:22;7.40;;;3.10;;
31994;SDS011;51311;50.870;7.048;2022-07-22T08:58:22;5.70;;;2.60;;
31994;SDS011;51311;50.870;7.048;2022-07-22T09:02:23;4.40;;;2.50;;
31994;SDS011;51311;50.870;7.048;2022-07-22T09:06:23;6.70;;;2.50;;
31994;SDS011;51311;50.870;7.048;2022-07-22T09:10:22;3.80;;;1.90;;
31994;SDS011;51311;50.870;7.048;2022-07-22T09:14:23;5.10;;;2.50;;
31994;SDS011;51311;50.870;7.048;2022-07-22T09:18:23;4.30;;;2.00;;
31994;SDS011;51311;50.870;7.048;2022-07-22T09:22:32;4.30;;;2.00;;
31994;SDS011;51311;50.870;7.048;2022-07-22T09:26:32;10.40;;;2.90;;
31994;SDS011;51311;50.870;7.048;2022-07-22T09:30:25;8.10;;;2.30;;
31994;SDS011;51311;50.870;7.048;2022-07-22T09:34:26;4.50;;;2.30;;
31994;SDS011;51311;50.870;7.048;2022-07-22T09:38:27;4.00;;;2.10;;
31994;SDS011;51311;50.870;7.048;2022-07-22T09:42:24;4.90;;;2.40;;
31994;SDS011;51311;50.870;7.048;2022-07-22T09:46:37;5.90;;;2.70;;
31994;SDS011;51311;50.870;7.048;2022-07-22T09:50:25;4.40;;;2.10;;
31994;SDS011;51311;50.870;7.048;2022-07-22T09:54:24;7.70;;;2.90;;
31994;SDS011;51311;50.870;7.048;2022-07-22T09:58:25;5.50;;;2.30;;
31994;SDS011;51311;50.870;7.048;2022-07-22T10:02:25;7.40;;;2.60;;
31994;SDS011;51311;50.870;7.048;2022-07-22T10:06:25;6.00;;;2.20;;
31994;SDS011;51311;50.870;7.048;2022-07-22T10:10:26;6.00;;;2.50;;
31994;SDS011;51311;50.870;7.048;2022-07-22T10:14:25;7.20;;;2.60;;
31994;SDS011;51311;50.870;7.048;2022-07-22T10:18:26;5.20;;;2.70;;
31994;SDS011;51311;50.870;7.048;2022-07-22T10:26:45;8.60;;;3.00;;
31994;SDS011;51311;50.870;7.048;2022-07-22T10:34:26;6.20;;;3.00;;
31994;SDS011;51311;50.870;7.048;2022-07-22T10:38:26;7.70;;;3.20;;
31994;SDS011;51311;50.870;7.048;2022-07-22T10:42:53;7.10;;;3.00;;
31994;SDS011;51311;50.870;7.048;2022-07-22T10:46:53;6.30;;;2.70;;
31994;SDS011;51311;50.870;7.048;2022-07-22T10:54:28;6.70;;;3.40;;
31994;SDS011;51311;50.870;7.048;2022-07-22T11:02:29;6.80;;;3.00;;
31994;SDS011;51311;50.870;7.048;2022-07-22T11:06:29;7.10;;;3.00;;
31994;SDS011;51311;50.870;7.048;2022-07-22T11:10:29;5.30;;;2.60;;
31994;SDS011;51311;50.870;7.048;2022-07-22T11:14:30;6.10;;;3.00;;
31994;SDS011;51311;50.870;7.048;2022-07-22T11:18:50;6.40;;;3.30;;
31994;SDS011;51311;50.870;7.048;2022-07-22T11:22:29;5.90;;;3.00;;
31994;SDS011;51311;50.870;7.048;2022-07-22T11:26:35;4.80;;;2.60;;
31994;SDS011;51311;50.870;7.048;2022-07-22T11:30:30;5.70;;;3.10;;
31994;SDS011;51311;50.870;7.048;2022-07-22T11:34:30;5.90;;;3.00;;
31994;SDS011;51311;50.870;7.048;2022-07-22T11:38:44;7.30;;;2.40;;
31994;SDS011;51311;50.870;7.048;2022-07-22T11:42:30;7.60;;;3.10;;
31994;SDS011;51311;50.870;7.048;2022-07-22T11:46:34;5.90;;;2.70;;
31994;SDS011;51311;50.870;7.048;2022-07-22T11:50:31;5.10;;;2.50;;
31994;SDS011;51311;50.870;7.048;2022-07-22T11:54:31;7.60;;;2.40;;
31994;SDS011;51311;50.870;7.048;2022-07-22T11:58:35;6.60;;;2.90;;
31994;SDS011;51311;50.870;7.048;2022-07-22T12:02:31;6.80;;;2.60;;
31994;SDS011;51311;50.870;7.048;2022-07-22T12:06:32;6.70;;;3.20;;
31994;SDS011;51311;50.870;7.048;2022-07-22T12:10:31;6.60;;;2.80;;
31994;SDS011;51311;50.870;7.048;2022-07-22T12:14:32;7.30;;;2.90;;
31994;SDS011;51311;50.870;7.048;2022-07-22T12:18:38;5.10;;;2.60;;
31994;SDS011;51311;50.870;7.048;2022-07-22T12:22:32;6.60;;;2.60;;
31994;SDS011;51311;50.870;7.048;2022-07-22T12:26:39;6.70;;;2.50;;
31994;SDS011;51311;50.870;7.048;2022-07-22T12:30:32;5.30;;;2.80;;
31994;SDS011;51311;50.870;7.048;2022-07-22T12:38:33;5.50;;;2.60;;
31994;SDS011;51311;50.870;7.048;2022-07-22T12:42:34;7.70;;;2.80;;
31994;SDS011;51311;50.870;7.048;2022-07-22T12:46:33;5.50;;;2.50;;
31994;SDS011;51311;50.870;7.048;2022-07-22T12:50:35;7.70;;;2.40;;
31994;SDS011;51311;50.870;7.048;2022-07-22T12:54:34;8.70;;;2.60;;
31994;SDS011;51311;50.870;7.048;2022-07-22T12:58:33;4.40;;;2.10;;
31994;SDS011;51311;50.870;7.048;2022-07-22T13:02:33;4.00;;;2.30;;
31994;SDS011;51311;50.870;7.048;2022-07-22T13:06:34;4.50;;;2.20;;
31994;SDS011;51311;50.870;7.048;2022-07-22T13:10:34;5.60;;;2.80;;
31994;SDS011;51311;50.870;7.048;2022-07-22T13:14:34;5.10;;;2.40;;
31994;SDS011;51311;50.870;7.048;2022-07-22T13:18:34;5.10;;;2.20;;
31994;SDS011;51311;50.870;7.048;2022-07-22T13:22:35;4.90;;;2.30;;
31994;SDS011;51311;50.870;7.048;2022-07-22T13:26:34;7.80;;;3.20;;
31994;SDS011;51311;50.870;7.048;2022-07-22T13:30:35;6.10;;;2.10;;
31994;SDS011;51311;50.870;7.048;2022-07-22T13:34:35;4.90;;;2.60;;
31994;SDS011;51311;50.870;7.048;2022-07-22T13:38:35;4.90;;;2.60;;
31994;SDS011;51311;50.870;7.048;2022-07-22T13:42:35;4.10;;;2.00;;
31994;SDS011;51311;50.870;7.048;2022-07-22T13:46:35;4.00;;;2.20;;
31994;SDS011;51311;50.870;7.048;2022-07-22T13:50:35;5.10;;;2.90;;
31994;SDS011;51311;50.870;7.048;2022-07-22T13:54:36;4.70;;;2.70;;
31994;SDS011;51311;50.870;7.048;2022-07-22T13:58:37;6.80;;;3.00;;
31994;SDS011;51311;50.870;7.048;2022-07-22T14:02:36;6.60;;;3.30;;
31994;SDS011;51311;50.870;7.048;2022-07-22T14:06:36;11.60;;;3.20;;
31994;SDS011;51311;50.870;7.048;2022-07-22T14:10:36;6.60;;;2.60;;
31994;SDS011;51311;50.870;7.048;2022-07-22T14:14:36;9.00;;;2.90;;
31994;SDS011;51311;50.870;7.048;2022-07-22T14:22:37;6.30;;;2.90;;
31994;SDS011;51311;50.870;7.048;2022-07-22T14:26:37;6.50;;;2.90;;
31994;SDS011;51311;50.870;7.048;2022-07-22T14:30:37;3.60;;;2.40;;
31994;SDS011;51311;50.870;7.048;2022-07-22T14:34:37;3.90;;;2.20;;
31994;SDS011;51311;50.870;7.048;2022-07-22T14:42:38;4.70;;;2.80;;
31994;SDS011;51311;50.870;7.048;2022-07-22T14:46:38;4.30;;;2.10;;
31994;SDS011;51311;50.870;7.048;2022-07-22T14:50:38;5.20;;;2.50;;
31994;SDS011;51311;50.870;7.048;2022-07-22T14:54:38;6.60;;;2.30;;
31994;SDS011;51311;50.870;7.048;2022-07-22T14:58:38;4.80;;;2.20;;
31994;SDS011;51311;50.870;7.048;2022-07-22T15:02:38;4.90;;;2.50;;
31994;SDS011;51311;50.870;7.048;2022-07-22T15:06:38;5.80;;;2.70;;
31994;SDS011;51311;50.870;7.048;2022-07-22T15:10:39;5.90;;;2.30;;
31994;SDS011;51311;50.870;7.048;2022-07-22T15:14:39;5.60;;;2.60;;
31994;SDS011;51311;50.870;7.048;2022-07-22T15:18:39;4.80;;;2.40;;
31994;SDS011;51311;50.870;7.048;2022-07-22T15:22:39;4.70;;;2.50;;
31994;SDS011;51311;50.870;7.048;2022-07-22T15:26:39;6.10;;;3.10;;
31994;SDS011;51311;50.870;7.048;2022-07-22T15:30:39;7.20;;;2.70;;
31994;SDS011;51311;50.870;7.048;2022-07-22T15:34:40;8.50;;;3.40;;
31994;SDS011;51311;50.870;7.048;2022-07-22T15:38:40;5.00;;;2.80;;
31994;SDS011;51311;50.870;7.048;2022-07-22T15:42:40;8.50;;;3.00;;
31994;SDS011;51311;50.870;7.048;2022-07-22T15:46:40;4.00;;;2.60;;
31994;SDS011;51311;50.870;7.048;2022-07-22T15:50:40;6.50;;;3.40;;
31994;SDS011;51311;50.870;7.048;2022-07-22T15:54:40;4.60;;;2.70;;
31994;SDS011;51311;50.870;7.048;2022-07-22T15:58:40;5.90;;;2.60;;
31994;SDS011;51311;50.870;7.048;2022-07-22T16:02:41;6.80;;;3.00;;
31994;SDS011;51311;50.870;7.048;2022-07-22T16:06:41;13.80;;;4.20;;
31994;SDS011;51311;50.870;7.048;2022-07-22T16:10:41;19.80;;;4.80;;
31994;SDS011;51311;50.870;7.048;2022-07-22T16:18:41;13.80;;;5.30;;
31994;SDS011;51311;50.870;7.048;2022-07-22T16:22:41;22.10;;;5.90;;
31994;SDS011;51311;50.870;7.048;2022-07-22T16:26:42;48.30;;;11.60;;
31994;SDS011;51311;50.870;7.048;2022-07-22T16:30:42;47.00;;;11.30;;
31994;SDS011;51311;50.870;7.048;2022-07-22T16:34:42;31.40;;;10.00;;
31994;SDS011;51311;50.870;7.048;2022-07-22T16:38:42;39.00;;;9.40;;
31994;SDS011;51311;50.870;7.048;2022-07-22T16:42:42;32.30;;;9.00;;
31994;SDS011;51311;50.870;7.048;2022-07-22T16:46:42;29.60;;;7.40;;
31994;SDS011;51311;50.870;7.048;2022-07-22T16:50:42;19.50;;;6.40;;
31994;SDS011;51311;50.870;7.048;2022-07-22T16:54:43;21.20;;;5.60;;
31994;SDS011;51311;50.870;7.048;2022-07-22T16:58:43;13.60;;;4.40;;
31994;SDS011;51311;50.870;7.048;2022-07-22T17:02:43;13.60;;;4.50;;
31994;SDS011;51311;50.870;7.048;2022-07-22T17:06:43;9.70;;;4.00;;
31994;SDS011;51311;50.870;7.048;2022-07-22T17:10:43;11.70;;;3.90;;
31994;SDS011;51311;50.870;7.048;2022-07-22T17:14:43;8.90;;;3.30;;
31994;SDS011;51311;50.870;7.048;2022-07-22T17:18:44;6.30;;;2.70;;
31994;SDS011;51311;50.870;7.048;2022-07-22T17:22:44;6.40;;;3.30;;
31994;SDS011;51311;50.870;7.048;2022-07-22T17:26:44;5.20;;;2.00;;
31994;SDS011;51311;50.870;7.048;2022-07-22T17:30:44;5.30;;;3.00;;
31994;SDS011;51311;50.870;7.048;2022-07-22T17:34:44;5.70;;;2.60;;
31994;SDS011;51311;50.870;7.048;2022-07-22T17:38:44;5.90;;;2.70;;
31994;SDS011;51311;50.870;7.048;2022-07-22T17:42:44;4.60;;;2.10;;
31994;SDS011;51311;50.870;7.048;2022-07-22T17:46:45;9.00;;;2.90;;
31994;SDS011;51311;50.870;7.048;2022-07-22T17:50:45;4.20;;;2.40;;
31994;SDS011;51311;50.870;7.048;2022-07-22T17:54:45;6.50;;;3.30;;
31994;SDS011;51311;50.870;7.048;2022-07-22T17:58:45;6.00;;;2.70;;
31994;SDS011;51311;50.870;7.048;2022-07-22T18:02:45;8.70;;;2.40;;
31994;SDS011;51311;50.870;7.048;2022-07-22T18:06:45;4.50;;;2.30;;
31994;SDS011;51311;50.870;7.048;2022-07-22T18:10:46;7.20;;;2.60;;
31994;SDS011;51311;50.870;7.048;2022-07-22T18:14:46;7.00;;;2.50;;
31994;SDS011;51311;50.870;7.048;2022-07-22T18:18:46;4.80;;;2.10;;
31994;SDS011;51311;50.870;7.048;2022-07-22T18:22:46;6.90;;;2.10;;
31994;SDS011;51311;50.870;7.048;2022-07-22T18:26:46;5.30;;;2.80;;
31994;SDS011;51311;50.870;7.048;2022-07-22T18:30:46;7.00;;;2.40;;
31994;SDS011;51311;50.870;7.048;2022-07-22T18:34:47;5.00;;;2.60;;
31994;SDS011;51311;50.870;7.048;2022-07-22T18:38:47;5.60;;;2.30;;
31994;SDS011;51311;50.870;7.048;2022-07-22T18:42:47;4.20;;;2.30;;
31994;SDS011;51311;50.870;7.048;2022-07-22T18:46:47;4.40;;;2.60;;
31994;SDS011;51311;50.870;7.048;2022-07-22T18:50:47;4.50;;;2.10;;
31994;SDS011;51311;50.870;7.048;2022-07-22T18:54:47;4.10;;;2.40;;
31994;SDS011;51311;50.870;7.048;2022-07-22T18:58:47;4.10;;;2.10;;
31994;SDS011;51311;50.870;7.048;2022-07-22T19:02:48;4.00;;;2.60;;
31994;SDS011;51311;50.870;7.048;2022-07-22T19:06:48;5.40;;;2.70;;
31994;SDS011;51311;50.870;7.048;2022-07-22T19:10:48;5.40;;;2.10;;
31994;SDS011;51311;50.870;7.048;2022-07-22T19:14:48;4.70;;;2.20;;
31994;SDS011;51311;50.870;7.048;2022-07-22T19:18:48;5.70;;;1.90;;
31994;SDS011;51311;50.870;7.048;2022-07-22T19:22:48;4.70;;;2.00;;
31994;SDS011;51311;50.870;7.048;2022-07-22T19:26:49;5.80;;;1.90;;
31994;SDS011;51311;50.870;7.048;2022-07-22T19:30:49;3.60;;;1.80;;
31994;SDS011;51311;50.870;7.048;2022-07-22T19:34:49;4.10;;;1.80;;
31994;SDS011;51311;50.870;7.048;2022-07-22T19:38:49;3.90;;;1.90;;
31994;SDS011;51311;50.870;7.048;2022-07-22T19:42:49;3.20;;;1.80;;
31994;SDS011;51311;50.870;7.048;2022-07-22T19:46:49;3.60;;;1.80;;
31994;SDS011;51311;50.870;7.048;2022-07-22T19:50:50;3.90;;;2.40;;
31994;SDS011;51311;50.870;7.048;2022-07-22T19:54:50;3.80;;;2.00;;
31994;SDS011;51311;50.870;7.048;2022-07-22T19:58:50;4.20;;;2.40;;
31994;SDS011;51311;50.870;7.048;2022-07-22T20:02:50;3.30;;;1.70;;
31994;SDS011;51311;50.870;7.048;2022-07-22T20:06:50;4.90;;;1.90;;
31994;SDS011;51311;50.870;7.048;2022-07-22T20:10:50;4.90;;;1.90;;
31994;SDS011;51311;50.870;7.048;2022-07-22T20:14:51;3.80;;;1.80;;
31994;SDS011;51311;50.870;7.048;2022-07-22T20:18:51;4.10;;;2.20;;
31994;SDS011;51311;50.870;7.048;2022-07-22T20:22:51;4.60;;;1.90;;
31994;SDS011;51311;50.870;7.048;2022-07-22T20:26:51;3.90;;;2.40;;
31994;SDS011;51311;50.870;7.048;2022-07-22T20:30:51;4.20;;;1.90;;
31994;SDS011;51311;50.870;7.048;2022-07-22T20:34:51;6.20;;;2.20;;
31994;SDS011;51311;50.870;7.048;2022-07-22T20:38:51;6.90;;;2.40;;
31994;SDS011;51311;50.870;7.048;2022-07-22T20:42:52;4.20;;;1.80;;
31994;SDS011;51311;50.870;7.048;2022-07-22T20:46:52;3.20;;;1.60;;
31994;SDS011;51311;50.870;7.048;2022-07-22T20:50:52;3.50;;;1.60;;
31994;SDS011;51311;50.870;7.048;2022-07-22T20:54:52;3.60;;;1.60;;
31994;SDS011;51311;50.870;7.048;2022-07-22T20:58:52;3.60;;;1.60;;
31994;SDS011;51311;50.870;7.048;2022-07-22T21:02:52;4.20;;;2.00;;
31994;SDS011;51311;50.870;7.048;2022-07-22T21:06:53;4.10;;;1.70;;
31994;SDS011;51311;50.870;7.048;2022-07-22T21:10:53;3.40;;;1.80;;
31994;SDS011;51311;50.870;7.048;2022-07-22T21:14:53;2.80;;;1.60;;
31994;SDS011;51311;50.870;7.048;2022-07-22T21:18:53;2.80;;;1.50;;
31994;SDS011;51311;50.870;7.048;2022-07-22T21:22:53;3.10;;;2.00;;
31994;SDS011;51311;50.870;7.048;2022-07-22T21:26:53;4.20;;;1.50;;
31994;SDS011;51311;50.870;7.048;2022-07-22T21:30:54;3.90;;;2.00;;
31994;SDS011;51311;50.870;7.048;2022-07-22T21:34:54;4.30;;;1.70;;
31994;SDS011;51311;50.870;7.048;2022-07-22T21:38:54;3.30;;;2.00;;
31994;SDS011;51311;50.870;7.048;2022-07-22T21:42:54;3.90;;;1.70;;
31994;SDS011;51311;50.870;7.048;2022-07-22T21:46:54;2.60;;;1.40;;
31994;SDS011;51311;50.870;7.048;2022-07-22T21:50:54;4.40;;;2.00;;
31994;SDS011;51311;50.870;7.048;2022-07-22T21:54:55;3.10;;;1.70;;
31994;SDS011;51311;50.870;7.048;2022-07-22T21:58:55;3.10;;;1.50;;
31994;SDS011;51311;50.870;7.048;2022-07-22T22:02:55;3.40;;;1.40;;
31994;SDS011;51311;50.870;7.048;2022-07-22T22:06:55;4.20;;;1.90;;
31994;SDS011;51311;50.870;7.048;2022-07-22T22:10:55;3.30;;;1.60;;
31994;SDS011;51311;50.870;7.048;2022-07-22T22:14:55;3.40;;;1.50;;
31994;SDS011;51311;50.870;7.048;2022-07-22T22:18:55;3.60;;;1.60;;
31994;SDS011;51311;50.870;7.048;2022-07-22T22:22:56;3.60;;;1.60;;
31994;SDS011;51311;50.870;7.048;2022-07-22T22:26:56;2.90;;;1.50;;
31994;SDS011;51311;50.870;7.048;2022-07-22T22:30:56;3.10;;;1.60;;
31994;SDS011;51311;50.870;7.048;2022-07-22T22:34:56;3.00;;;1.40;;
31994;SDS011;51311;50.870;7.048;2022-07-22T22:38:56;2.50;;;1.40;;
31994;SDS011;51311;50.870;7.048;2022-07-22T22:42:56;3.90;;;1.70;;
31994;SDS011;51311;50.870;7.048;2022-07-22T22:46:57;3.00;;;1.50;;
31994;SDS011;51311;50.870;7.048;2022-07-22T22:50:57;3.40;;;1.50;;
31994;SDS011;51311;50.870;7.048;2022-07-22T22:54:57;2.10;;;1.30;;
31994;SDS011;51311;50.870;7.048;2022-07-22T22:58:57;3.20;;;1.50;;
31994;SDS011;51311;50.870;7.048;2022-07-22T23:02:57;3.00;;;1.70;;
31994;SDS011;51311;50.870;7.048;2022-07-22T23:06:57;4.90;;;2.00;;
31994;SDS011;51311;50.870;7.048;2022-07-22T23:10:58;2.50;;;1.60;;
31994;SDS011;51311;50.870;7.048;2022-07-22T23:14:58;2.70;;;1.50;;
31994;SDS011;51311;50.870;7.048;2022-07-22T23:18:58;2.70;;;1.40;;
31994;SDS011;51311;50.870;7.048;2022-07-22T23:22:58;3.10;;;1.70;;
31994;SDS011;51311;50.870;7.048;2022-07-22T23:26:58;2.50;;;1.40;;
31994;SDS011;51311;50.870;7.048;2022-07-22T23:30:58;2.50;;;1.50;;
31994;SDS011;51311;50.870;7.048;2022-07-22T23:34:59;2.60;;;1.60;;
31994;SDS011;51311;50.870;7.048;2022-07-22T23:38:59;3.40;;;1.50;;
31994;SDS011;51311;50.870;7.048;2022-07-22T23:42:59;2.40;;;1.40;;
31994;SDS011;51311;50.870;7.048;2022-07-22T23:46:59;2.50;;;1.50;;
31994;SDS011;51311;50.870;7.048;2022-07-22T23:50:59;4.20;;;1.50;;
31994;SDS011;51311;50.870;7.048;2022-07-22T23:54:59;3.30;;;1.60;;
31994;SDS011;51311;50.870;7.048;2022-07-22T23:58:59;2.50;;;1.40;;
